Portada
METAR-TAF:

METAR-TAF

Aeropuertos :

Aeropuerto Internacional Princesa Juliana

Sint Maarten, Antillas Neerlandesas

latitud: 18-03N, longitud: 063-07W, altitud: 4 m

Observación

El informe se hizo hace 24 minutos, a las 05:00 UTC
Viento 10 kt del este
Temperatura 28°C
Humedad 89%
Presión 1016 hPa
Visibilidad 10 km o más
Nubes dispersas a una altura de 1600 ft

METAR: TNCM 080500Z 09010KT 9999 SCT016 28/26 Q1016

Hora: 01:24 (05:24 UTC)

Pronóstico

El informe se hizo hace 3 horas y 43 minutos, a las 01:41 UTC
Pronóstico válido del 08 a las 02 UTC al 08 a las 24 UTC
Viento 10 kt del este
Visibilidad: 10 km
Nubes dispersas a una altura de 1600 ft
Nubes dispersas a una altura de 2500 ft
chaparrones en las proximidades
A partir de las 08 a las 1300 UTC
Viento 13 kt del este
Visibilidad: 10 km
Escasas nubes a una altura de 1800 ft
Escasas nubes a una altura de 2500 ft

TAF: TNCM 080141Z 0802/0824 10010KT P6SM VCSH SCT016 SCT025 FM081300 10013KT P6SM FEW018 FEW025

Observaciones y pronósticos meteorológicos de más de 4000 aeropuertos (mensajes METAR y TAF).

Los puntos amarillos y rojos representan las estaciones disponibles.

Ponga el ratón en el punto deseado para ver el nombre de la estación.

Haga clic para ver las observaciones y los pronósticos meteorológicos.

Para cambiar el mapa : haga clic en los botones verdes con una cruz de color negro para hacer un zoom, en el botón verde con un guión para alejar o en las flechas verdes para mapas adyacentes.


METAR-TAF: